Chautauqua County-Jamestown Airport
KJHW : now visible

Airfield :











YOU CAN JOIN US ON...

 
LOGIN :

Register | Disclaimer

   EN    FR    IT 

 









Legend :    VFR   Marginal VFR   IFR   Intensive IFR   Very Intensive IFR
Visi :
Ceiling :
>= 8 km
>= 3000ft
5 to 8 km
1000 to 3000 ft
1500m to 5 km
500 to 1000 ft
800 to 1500m
200 to 500 ft
< 800m
< 200 ft
Symbols :   Thunderstorms  Fog  Heavy snow  Heavy precipitations  Wind > 20 kt






- Airport Elevation : 1723 ft


KJHW - Chautauqua County-Jamestown

CURRENT METAR :
  • 221056Z AUTO 27008KT 10SM OVC060 M04/M07 A2990 RMK AO2 SLP152 T10391072 FZRANO

EXPIRED METARs :
  • 220956Z AUTO 25010KT 200V290 10SM BKN060 M06/M08 A2989 RMK AO2 SLP149 T10561078 FZRANO
  • 220856Z AUTO VRB06KT 10SM FEW065 M06/M09 A2989 RMK AO2 SLP149 T10611089 55001 FZRANO

TAF KJHW
Valid from the 22 at 12:00 until the 23 at 12:00 UTC


221132Z 2212/2312 29009KT P6SM BKN060
FM221400 30012KT P6SM BKN060
FM221600 29016G26KT P6SM VCSH BKN060
FM222300 28012KT P6SM BKN060
FM230200 26006KT P6SM BKN080
KZOB FIR / North America



MET'MAP, your aeronautical weather chart ! - Copyright ORBIFLY December 2007 - Disclaimer

ORBIFLY MET'MAP TEAM :

Programming & Development : Alexandra Zaïnal
Concept & original design : Baudouin d'Aumeries
Assistance for programming : Marc-Olivier Méhu
Technical & hardware support : Manuel Goepfert

Contact : metmap@orbifly.com




SOURCES & CREDITS :

   NOAA       Earth
Advisory